Mc Clellan Airfield
KMCC : now visible

Airfield :











YOU CAN JOIN US ON...

 
LOGIN :

Register | Disclaimer

   EN    FR    IT 

 









Legend :    VFR   Marginal VFR   IFR   Intensive IFR   Very Intensive IFR
Visi :
Ceiling :
>= 8 km
>= 3000ft
5 to 8 km
1000 to 3000 ft
1500m to 5 km
500 to 1000 ft
800 to 1500m
200 to 500 ft
< 800m
< 200 ft
Symbols :   Thunderstorms  Fog  Heavy snow  Heavy precipitations  Wind > 20 kt






- Airport Elevation : 77 ft


KMCC - Mc Clellan

CURRENT METAR :
  • 080835Z AUTO 16010KT 9SM FEW013 SCT025 OVC032 14/13 A2997 RMK AO2

EXPIRED METARs :
  • 080815Z AUTO 16010KT 10SM BKN029 OVC035 14/13 A2997 RMK AO2
  • 080755Z AUTO 16010KT 10SM BKN030 OVC037 14/13 A2997 RMK AO2
  • 080735Z AUTO 16011KT 8SM BKN029 OVC038 14/13 A2997 RMK AO2
  • 080715Z AUTO 15009KT 10SM BKN028 BKN040 OVC048 14/13 A2996 RMK AO2
  • 080655Z AUTO 15006KT 8SM FEW003 FEW013 OVC026 14/13 A2997 RMK AO2
  • 080635Z AUTO 16006KT 2 1/2SM -RA FEW003 SCT020 BKN024 13/13 A2997 RMK AO2
  • 080615Z AUTO 16009KT 1 3/4SM -RA SCT004 SCT012 OVC026 14/13 A2997 RMK AO2 VIS 3/4V3
  • 080555Z AUTO 15013KT 3SM -RA FEW008 BKN029 OVC037 14/13 A2996 RMK AO2

TAF KMCC
Valid from the 08 at 06:00 until the 09 at 06:00 UTC


080520Z 0806/0906 13009KT P6SM VCSH SCT029 OVC035
TEMPO 0806/0810 5SM SHRA BR BKN020
FM081000 15006KT 5SM BR OVC050
FM082000 VRB04KT P6SM BKN050
FM090100 34004KT P6SM SKC



MET'MAP, your aeronautical weather chart ! - Copyright ORBIFLY December 2007 - Disclaimer

ORBIFLY MET'MAP TEAM :

Programming & Development : Alexandra Zaïnal
Concept & original design : Baudouin d'Aumeries
Assistance for programming : Marc-Olivier Méhu
Technical & hardware support : Manuel Goepfert

Contact : metmap@orbifly.com




SOURCES & CREDITS :

   NOAA       Earth
Advisory